createdAt,value
2023-03-27T00:01:39.410Z,6.07
2023-03-27T00:03:42.764Z,6.50
2023-03-27T00:05:46.305Z,7.17
2023-03-27T00:07:52.023Z,6.20
2023-03-27T00:09:54.770Z,6.80
2023-03-27T00:11:57.632Z,6.87
2023-03-27T00:14:00.506Z,6.30
2023-03-27T00:16:05.191Z,6.07
2023-03-27T00:18:08.305Z,5.83
2023-03-27T00:20:11.837Z,5.63
2023-03-27T00:22:14.854Z,5.70
2023-03-27T00:24:19.104Z,5.90
2023-03-27T00:26:22.387Z,5.70
2023-03-27T00:28:27.387Z,5.30
2023-03-27T00:30:31.930Z,4.97
2023-03-27T00:32:36.167Z,5.33
2023-03-27T00:34:39.024Z,4.90
2023-03-27T00:36:43.580Z,5.30
2023-03-27T00:38:46.631Z,4.63
2023-03-27T00:40:54.837Z,4.07
2023-03-27T00:42:59.845Z,4.10
2023-03-27T00:45:03.361Z,3.83
2023-03-27T00:47:09.242Z,3.40
2023-03-27T00:49:14.418Z,2.77
2023-03-27T00:51:19.578Z,2.90
2023-03-27T00:53:27.963Z,2.83
2023-03-27T00:55:33.249Z,2.90
2023-03-27T00:57:37.915Z,2.53
2023-03-27T00:59:42.882Z,2.57
2023-03-27T01:01:46.626Z,3.27
2023-03-27T01:03:51.473Z,2.80
2023-03-27T01:05:56.865Z,2.70
2023-03-27T01:08:03.534Z,2.60
2023-03-27T01:10:08.745Z,2.53
2023-03-27T01:12:20.868Z,2.60
2023-03-27T01:14:33.323Z,2.53
2023-03-27T01:16:44.415Z,2.80
2023-03-27T01:18:59.107Z,2.80
2023-03-27T01:21:28.943Z,3.07
2023-03-27T01:24:04.203Z,3.40
2023-03-27T01:26:42.245Z,3.07
2023-03-27T01:28:54.646Z,3.40
2023-03-27T01:31:10.074Z,2.37
2023-03-27T01:33:31.657Z,2.80
2023-03-27T01:35:57.587Z,3.07
2023-03-27T01:38:46.612Z,2.70
2023-03-27T01:40:56.360Z,2.83
2023-03-27T01:43:05.332Z,2.80
2023-03-27T01:45:13.086Z,2.20
2023-03-27T01:47:34.936Z,2.90
2023-03-27T01:49:42.869Z,2.90
2023-03-27T01:51:53.056Z,2.30
2023-03-27T01:54:01.502Z,2.40
2023-03-27T01:56:08.930Z,3.13
2023-03-27T01:58:15.506Z,2.40
2023-03-27T02:00:22.835Z,2.70
2023-03-27T02:02:29.376Z,2.50
2023-03-27T02:04:39.428Z,2.80
2023-03-27T02:06:46.024Z,2.70
2023-03-27T02:08:54.439Z,3.03
2023-03-27T02:10:59.614Z,2.60
2023-03-27T02:13:10.041Z,3.10
2023-03-27T02:15:23.600Z,2.47
2023-03-27T02:17:30.136Z,2.40
2023-03-27T02:19:36.136Z,2.43
2023-03-27T02:21:38.931Z,2.53
2023-03-27T02:23:43.432Z,2.70
2023-03-27T02:25:47.425Z,2.50
2023-03-27T02:27:55.086Z,2.87
2023-03-27T02:30:10.202Z,2.30
2023-03-27T02:32:25.925Z,2.43
2023-03-27T02:34:50.976Z,2.57
2023-03-27T02:37:01.908Z,2.47
2023-03-27T02:39:13.569Z,3.17
2023-03-27T02:41:27.397Z,2.50
2023-03-27T02:43:33.517Z,2.50
2023-03-27T02:45:47.900Z,2.73
2023-03-27T02:47:56.470Z,3.23
2023-03-27T02:50:05.383Z,2.43
2023-03-27T02:52:13.940Z,2.60
2023-03-27T02:54:20.054Z,2.67
2023-03-27T02:56:24.859Z,2.60
2023-03-27T02:58:37.841Z,2.77
2023-03-27T03:00:48.847Z,2.93
2023-03-27T03:02:55.606Z,2.80
2023-03-27T03:05:03.886Z,2.50
2023-03-27T03:07:06.719Z,2.80
2023-03-27T03:09:10.821Z,2.87
2023-03-27T03:11:15.655Z,2.73
2023-03-27T03:13:18.986Z,2.93
2023-03-27T03:15:21.796Z,2.80
2023-03-27T03:17:25.914Z,2.77
2023-03-27T03:19:28.803Z,3.20
2023-03-27T03:21:31.912Z,2.97
2023-03-27T03:23:34.867Z,2.67
2023-03-27T03:25:37.687Z,2.27
2023-03-27T03:27:41.385Z,2.83
2023-03-27T03:29:44.172Z,2.93
2023-03-27T03:31:47.229Z,2.80
2023-03-27T03:33:51.555Z,3.00
2023-03-27T03:35:54.367Z,2.87
2023-03-27T03:37:59.240Z,2.90
2023-03-27T03:40:02.029Z,2.73
2023-03-27T03:42:05.361Z,2.63
2023-03-27T03:44:08.320Z,2.83
2023-03-27T03:46:11.233Z,3.23
2023-03-27T03:48:14.112Z,2.43
2023-03-27T03:50:18.507Z,2.80
2023-03-27T03:52:21.355Z,2.57
2023-03-27T03:54:24.131Z,3.17
2023-03-27T03:56:29.658Z,2.67
2023-03-27T03:58:44.770Z,2.30
2023-03-27T04:00:50.306Z,2.53
2023-03-27T04:02:54.221Z,2.53
2023-03-27T04:04:58.971Z,2.30
2023-03-27T04:07:05.487Z,2.67
2023-03-27T04:09:08.351Z,2.60
2023-03-27T04:11:12.646Z,2.03
2023-03-27T04:13:15.583Z,2.70
2023-03-27T04:15:19.026Z,2.30
2023-03-27T04:17:23.164Z,2.77
2023-03-27T04:19:26.154Z,2.17
2023-03-27T04:21:29.073Z,2.63
2023-03-27T04:23:33.808Z,2.33
2023-03-27T04:25:36.738Z,2.10
2023-03-27T04:27:39.727Z,2.47
2023-03-27T04:29:43.726Z,2.77
2023-03-27T04:31:46.677Z,2.50
2023-03-27T04:33:52.089Z,2.60
2023-03-27T04:36:06.658Z,2.60
2023-03-27T04:38:10.792Z,2.17
2023-03-27T04:40:17.894Z,3.13
2023-03-27T04:42:23.342Z,2.13
2023-03-27T04:44:26.300Z,2.60
2023-03-27T04:46:29.417Z,2.33
2023-03-27T04:48:32.363Z,2.90
2023-03-27T04:50:37.409Z,2.20
2023-03-27T04:52:40.271Z,2.23
2023-03-27T04:54:44.075Z,2.37
2023-03-27T04:56:49.464Z,2.50
2023-03-27T04:59:06.299Z,2.23
2023-03-27T05:01:09.136Z,2.50
2023-03-27T05:03:13.692Z,2.70
2023-03-27T05:05:19.740Z,2.10
2023-03-27T05:07:23.032Z,2.53
2023-03-27T05:09:26.598Z,2.60
2023-03-27T05:11:29.392Z,2.70
2023-03-27T05:13:56.062Z,2.57
2023-03-27T05:16:05.004Z,3.10
2023-03-27T05:18:13.759Z,2.40
2023-03-27T05:20:19.646Z,3.20
2023-03-27T05:22:23.156Z,2.50
2023-03-27T05:24:28.568Z,3.03
2023-03-27T05:26:37.367Z,3.47
2023-03-27T05:29:00.643Z,3.00
2023-03-27T05:31:04.011Z,2.93
2023-03-27T05:33:07.815Z,3.13
2023-03-27T05:35:11.207Z,2.90
2023-03-27T05:37:14.064Z,2.90
2023-03-27T05:39:17.298Z,2.50
2023-03-27T05:41:20.139Z,2.70
2023-03-27T05:43:23.174Z,2.70
2023-03-27T05:45:29.356Z,3.10
2023-03-27T05:47:32.173Z,2.90
2023-03-27T05:49:37.564Z,3.20
2023-03-27T05:51:40.319Z,2.53
2023-03-27T05:53:50.526Z,2.80
2023-03-27T05:56:03.464Z,3.37
2023-03-27T05:58:09.641Z,2.80
2023-03-27T06:00:16.353Z,2.90
2023-03-27T06:02:23.343Z,2.83
2023-03-27T06:04:28.444Z,2.80
2023-03-27T06:06:32.828Z,3.30
2023-03-27T06:08:36.530Z,2.87
2023-03-27T06:10:42.022Z,2.60
2023-03-27T06:12:49.386Z,2.73
2023-03-27T06:14:52.855Z,2.50
2023-03-27T06:16:55.801Z,2.73
2023-03-27T06:19:02.479Z,2.93
2023-03-27T06:21:06.597Z,2.77
2023-03-27T06:23:10.760Z,3.00
2023-03-27T06:25:14.162Z,3.20
2023-03-27T06:27:16.977Z,2.30
2023-03-27T06:29:19.982Z,3.10
2023-03-27T06:31:23.236Z,2.63
2023-03-27T06:33:27.374Z,2.67
2023-03-27T06:35:33.792Z,2.77
2023-03-27T06:37:37.212Z,2.87
2023-03-27T06:39:40.167Z,2.50
2023-03-27T06:41:44.989Z,2.73
2023-03-27T06:43:49.117Z,2.90
2023-03-27T06:45:52.698Z,2.53
2023-03-27T06:48:18.820Z,2.80
2023-03-27T06:50:21.689Z,2.33
2023-03-27T06:52:26.046Z,3.13
2023-03-27T06:54:29.274Z,3.50
2023-03-27T06:56:32.251Z,2.33
2023-03-27T06:58:35.184Z,2.87
2023-03-27T07:00:39.906Z,2.90
2023-03-27T07:02:42.784Z,2.60
2023-03-27T07:04:54.240Z,2.53
2023-03-27T07:07:04.795Z,2.83
2023-03-27T07:09:09.621Z,2.40
2023-03-27T07:11:12.860Z,3.20
2023-03-27T07:13:16.616Z,2.87
2023-03-27T07:15:20.305Z,3.80
2023-03-27T07:17:29.852Z,6.43
2023-03-27T07:19:40.987Z,3.20
2023-03-27T07:21:43.824Z,2.90
2023-03-27T07:23:46.649Z,3.00
2023-03-27T07:25:52.083Z,2.77
2023-03-27T07:27:59.330Z,2.80
2023-03-27T07:30:04.709Z,2.63
2023-03-27T07:32:09.538Z,3.17
2023-03-27T07:34:41.080Z,3.00
2023-03-27T07:36:44.602Z,2.87
2023-03-27T07:38:47.697Z,2.77
2023-03-27T07:40:51.914Z,2.93
2023-03-27T07:42:54.662Z,3.37
2023-03-27T07:44:57.543Z,2.60
2023-03-27T07:47:00.938Z,3.17
2023-03-27T07:49:04.674Z,3.10
2023-03-27T07:51:13.731Z,3.10
2023-03-27T07:53:32.757Z,2.97
2023-03-27T07:55:37.910Z,2.90
2023-03-27T07:57:59.946Z,2.80
2023-03-27T08:00:11.772Z,2.47
2023-03-27T08:02:15.764Z,2.30
2023-03-27T08:04:19.276Z,3.27
2023-03-27T08:06:22.235Z,2.93
2023-03-27T08:08:25.622Z,2.80
2023-03-27T08:10:28.501Z,2.80
2023-03-27T08:12:55.473Z,2.90
2023-03-27T08:15:00.763Z,3.40
2023-03-27T08:17:14.972Z,2.43
2023-03-27T08:19:21.122Z,2.63
2023-03-27T08:21:30.148Z,2.67
2023-03-27T08:23:33.843Z,2.53
2023-03-27T08:25:36.696Z,2.10
2023-03-27T08:27:40.340Z,2.20
2023-03-27T08:29:44.769Z,2.60
2023-03-27T08:31:47.590Z,1.90
2023-03-27T08:33:50.747Z,2.20
2023-03-27T08:35:53.759Z,2.53
2023-03-27T08:37:57.185Z,2.40
2023-03-27T08:40:01.753Z,2.83
2023-03-27T08:42:08.163Z,2.47
2023-03-27T08:44:15.234Z,2.27
2023-03-27T08:46:24.405Z,2.10
2023-03-27T08:48:33.056Z,2.73
2023-03-27T08:50:40.644Z,2.10
2023-03-27T08:52:45.752Z,2.23
2023-03-27T08:54:53.579Z,2.20
2023-03-27T08:56:56.509Z,2.00
2023-03-27T08:58:59.457Z,2.17
2023-03-27T09:01:08.795Z,2.40
2023-03-27T09:03:19.126Z,2.00
2023-03-27T09:05:27.102Z,2.00
2023-03-27T09:07:36.109Z,1.90
2023-03-27T09:09:55.527Z,1.80
2023-03-27T09:12:05.083Z,1.87
2023-03-27T09:14:15.102Z,1.90
2023-03-27T09:16:23.763Z,1.80
2023-03-27T09:18:31.271Z,2.30
2023-03-27T09:20:37.295Z,1.73
2023-03-27T09:22:44.708Z,1.77
2023-03-27T09:24:49.725Z,2.10
2023-03-27T09:27:04.475Z,1.50
2023-03-27T09:29:20.008Z,1.80
2023-03-27T09:31:28.893Z,2.20
2023-03-27T09:33:34.515Z,1.90
2023-03-27T09:35:38.741Z,2.03
2023-03-27T09:37:42.699Z,1.90
2023-03-27T09:39:49.177Z,2.13
2023-03-27T09:41:55.213Z,1.73
2023-03-27T09:44:04.517Z,1.70
2023-03-27T09:46:09.555Z,1.40
2023-03-27T09:48:17.022Z,1.73
2023-03-27T09:50:29.286Z,2.00
2023-03-27T09:52:37.873Z,1.77
2023-03-27T09:54:52.846Z,1.60
2023-03-27T09:57:01.746Z,1.77
2023-03-27T09:59:12.137Z,1.00
2023-03-27T10:01:17.293Z,1.43
2023-03-27T10:03:22.766Z,1.40
2023-03-27T10:05:27.085Z,2.10
2023-03-27T10:07:29.890Z,1.90
2023-03-27T10:09:34.907Z,2.00
2023-03-27T10:11:38.867Z,1.80
2023-03-27T10:13:46.245Z,1.90
2023-03-27T10:15:49.233Z,1.50
2023-03-27T10:17:52.253Z,1.40
2023-03-27T10:20:01.178Z,1.63
2023-03-27T10:22:17.852Z,1.40
2023-03-27T10:24:27.312Z,1.70
2023-03-27T10:26:38.880Z,2.70
2023-03-27T10:28:48.913Z,1.63
2023-03-27T10:30:59.976Z,1.77
2023-03-27T10:33:03.191Z,5.53
2023-03-27T10:35:22.124Z,2.00
2023-03-27T10:37:30.472Z,2.13
2023-03-27T10:39:36.365Z,2.03
2023-03-27T10:41:39.713Z,1.77
2023-03-27T10:43:44.825Z,1.60
2023-03-27T10:45:50.972Z,1.23
2023-03-27T10:47:56.146Z,1.60
2023-03-27T10:50:08.909Z,1.50
2023-03-27T10:52:19.182Z,1.60
2023-03-27T10:54:35.124Z,1.70
2023-03-27T10:56:48.405Z,1.67
2023-03-27T10:58:59.507Z,1.40
2023-03-27T11:01:11.038Z,1.60
2023-03-27T11:03:21.732Z,1.23
2023-03-27T11:05:27.534Z,1.53
2023-03-27T11:07:37.751Z,1.50
2023-03-27T11:09:52.862Z,1.53
2023-03-27T11:12:00.100Z,1.20
2023-03-27T11:14:07.909Z,1.70
2023-03-27T11:16:17.884Z,1.60
2023-03-27T11:18:24.377Z,1.50
2023-03-27T11:20:33.020Z,1.60
2023-03-27T11:22:42.941Z,1.67
2023-03-27T11:24:54.040Z,1.43
2023-03-27T11:27:03.051Z,1.53
2023-03-27T11:29:09.467Z,1.50
2023-03-27T11:31:19.757Z,1.70
2023-03-27T11:33:36.536Z,1.60
2023-03-27T11:35:45.179Z,1.30
2023-03-27T11:37:53.257Z,1.47
2023-03-27T11:40:02.085Z,1.50
2023-03-27T11:42:14.752Z,1.40
2023-03-27T11:44:20.587Z,1.57
2023-03-27T11:46:45.630Z,1.20
2023-03-27T11:49:08.487Z,1.47
2023-03-27T11:51:20.539Z,1.90
2023-03-27T11:53:46.498Z,1.40
2023-03-27T11:56:07.773Z,1.40
2023-03-27T11:58:20.547Z,1.43
2023-03-27T12:00:31.115Z,1.53
2023-03-27T12:03:10.662Z,1.27
2023-03-27T12:05:21.577Z,1.30
2023-03-27T12:07:40.415Z,1.60
2023-03-27T12:10:00.662Z,1.50
2023-03-27T12:12:30.048Z,1.70
2023-03-27T12:14:46.058Z,1.70
2023-03-27T12:17:11.903Z,1.43
2023-03-27T12:19:38.435Z,1.63
2023-03-27T12:21:58.435Z,1.43
2023-03-27T12:24:26.666Z,1.73
2023-03-27T12:26:44.733Z,1.40
2023-03-27T12:29:02.034Z,1.50
2023-03-27T12:31:19.282Z,1.60
2023-03-27T12:33:34.886Z,1.23
2023-03-27T12:35:42.942Z,1.50
2023-03-27T12:37:57.697Z,1.50
2023-03-27T12:40:10.370Z,1.63
2023-03-27T12:42:44.010Z,3.03
2023-03-27T12:45:07.151Z,1.57
2023-03-27T12:47:17.972Z,1.63
2023-03-27T12:49:59.328Z,1.57
2023-03-27T12:52:06.205Z,1.30
2023-03-27T12:54:24.813Z,1.60
2023-03-27T12:56:35.659Z,1.57
2023-03-27T12:58:42.366Z,1.50
2023-03-27T13:00:58.854Z,1.73
2023-03-27T13:03:44.245Z,1.70
2023-03-27T13:06:06.369Z,1.70
2023-03-27T13:08:40.538Z,1.80
2023-03-27T13:10:57.599Z,1.60
2023-03-27T13:13:42.650Z,2.30
2023-03-27T13:16:08.764Z,8.77
2023-03-27T13:18:28.295Z,1.90
2023-03-27T13:20:40.142Z,1.30
2023-03-27T13:23:10.800Z,1.60
2023-03-27T13:25:33.901Z,1.40
2023-03-27T13:27:48.844Z,1.30
2023-03-27T13:29:54.823Z,2.50
2023-03-27T13:32:06.136Z,2.10
2023-03-27T13:34:15.609Z,1.50
2023-03-27T13:36:20.739Z,1.00
2023-03-27T13:38:49.486Z,1.23
2023-03-27T13:40:52.506Z,1.53
2023-03-27T13:43:18.178Z,1.83
2023-03-27T13:45:25.285Z,1.50
2023-03-27T13:48:06.143Z,2.23
2023-03-27T13:50:23.312Z,1.87
2023-03-27T13:52:50.203Z,1.57
2023-03-27T13:55:20.444Z,1.63
2023-03-27T13:57:41.136Z,1.70
2023-03-27T14:00:00.574Z,1.30
2023-03-27T14:02:29.194Z,1.10
2023-03-27T14:05:05.115Z,1.13
2023-03-27T14:07:45.092Z,1.50
2023-03-27T14:10:00.466Z,1.30
2023-03-27T14:12:14.043Z,1.60
2023-03-27T14:14:36.890Z,1.30
2023-03-27T14:16:51.200Z,1.10
2023-03-27T14:19:15.722Z,1.47
2023-03-27T14:21:35.723Z,1.50
2023-03-27T14:23:48.170Z,1.50
2023-03-27T14:26:00.322Z,1.40
2023-03-27T14:28:03.719Z,1.53
2023-03-27T14:30:15.474Z,1.30
2023-03-27T14:32:19.993Z,1.40
2023-03-27T14:34:30.350Z,1.30
2023-03-27T14:36:42.404Z,1.40
2023-03-27T14:38:46.133Z,1.17
2023-03-27T14:40:51.883Z,1.30
2023-03-27T14:42:58.954Z,1.40
2023-03-27T14:45:20.597Z,1.50
2023-03-27T14:47:24.078Z,1.20
2023-03-27T14:49:33.095Z,1.27
2023-03-27T14:51:42.874Z,1.53
2023-03-27T14:53:49.742Z,1.10
2023-03-27T14:55:55.243Z,0.93
2023-03-27T14:58:00.813Z,1.20
2023-03-27T15:00:06.964Z,1.60
2023-03-27T15:02:20.162Z,1.10
2023-03-27T15:04:24.786Z,1.30
2023-03-27T15:06:27.637Z,2.40
2023-03-27T15:08:36.872Z,1.60
2023-03-27T15:10:39.789Z,1.53
2023-03-27T15:12:47.123Z,2.90
2023-03-27T15:14:52.854Z,1.30
2023-03-27T15:17:01.138Z,1.23
2023-03-27T15:19:12.159Z,1.40
2023-03-27T15:21:19.969Z,1.47
2023-03-27T15:23:26.933Z,1.63
2023-03-27T15:25:37.144Z,1.20
2023-03-27T15:27:43.171Z,1.20
2023-03-27T15:29:49.437Z,1.40
2023-03-27T15:31:54.016Z,1.17
2023-03-27T15:34:03.295Z,1.60
2023-03-27T15:36:22.539Z,1.17
2023-03-27T15:38:28.803Z,1.20
2023-03-27T15:40:41.841Z,1.20
2023-03-27T15:42:47.717Z,1.30
2023-03-27T15:44:50.458Z,1.50
2023-03-27T15:46:56.208Z,1.47
2023-03-27T15:48:59.166Z,1.43
2023-03-27T15:51:03.940Z,1.00
2023-03-27T15:53:06.713Z,1.10
2023-03-27T15:55:11.478Z,0.70
2023-03-27T15:57:19.064Z,1.00
2023-03-27T15:59:26.154Z,1.40
2023-03-27T16:01:32.740Z,1.53
2023-03-27T16:03:36.475Z,1.50
2023-03-27T16:05:44.952Z,1.40
2023-03-27T16:07:49.291Z,1.40
2023-03-27T16:09:55.296Z,1.60
2023-03-27T16:12:01.813Z,1.00
2023-03-27T16:14:19.267Z,1.20
2023-03-27T16:16:26.002Z,1.00
2023-03-27T16:18:33.402Z,1.00
2023-03-27T16:20:40.951Z,1.10
2023-03-27T16:22:44.115Z,1.03
2023-03-27T16:24:47.040Z,0.80
2023-03-27T16:26:52.171Z,0.90
2023-03-27T16:28:58.900Z,0.90
2023-03-27T16:31:11.222Z,0.90
2023-03-27T16:33:16.622Z,0.80
2023-03-27T16:35:19.993Z,0.90
2023-03-27T16:37:26.546Z,1.03
2023-03-27T16:39:29.558Z,0.80
2023-03-27T16:41:32.457Z,1.50
2023-03-27T16:43:35.748Z,1.27
2023-03-27T16:45:39.258Z,1.10
2023-03-27T16:47:44.060Z,1.20
2023-03-27T16:49:59.723Z,0.83
2023-03-27T16:52:12.949Z,1.00
2023-03-27T16:54:16.170Z,0.90
2023-03-27T16:56:19.207Z,1.13
2023-03-27T16:58:23.383Z,1.40
2023-03-27T17:00:26.979Z,1.30
2023-03-27T17:02:30.834Z,1.30
2023-03-27T17:04:37.680Z,1.20
2023-03-27T17:06:40.814Z,1.30
2023-03-27T17:08:43.895Z,1.40
2023-03-27T17:10:47.258Z,1.07
2023-03-27T17:12:50.353Z,1.20
2023-03-27T17:14:53.274Z,1.30
2023-03-27T17:16:56.255Z,1.50
2023-03-27T17:19:01.656Z,1.50
2023-03-27T17:21:06.473Z,1.50
2023-03-27T17:23:10.200Z,1.60
2023-03-27T17:25:13.404Z,1.37
2023-03-27T17:27:17.308Z,2.00
2023-03-27T17:29:20.287Z,1.53
2023-03-27T17:31:23.656Z,1.27
2023-03-27T17:33:27.776Z,1.93
2023-03-27T17:35:31.487Z,1.10
2023-03-27T17:37:37.124Z,1.60
2023-03-27T17:39:41.016Z,1.50
2023-03-27T17:41:44.041Z,1.50
2023-03-27T17:43:47.828Z,1.47
2023-03-27T17:45:51.101Z,1.80
2023-03-27T17:47:54.075Z,1.50
2023-03-27T17:49:57.428Z,1.60
2023-03-27T17:52:00.324Z,1.80
2023-03-27T17:54:05.453Z,2.20
2023-03-27T17:56:09.857Z,1.50
2023-03-27T17:58:13.362Z,1.80
2023-03-27T18:00:17.841Z,1.80
2023-03-27T18:02:22.289Z,1.60
2023-03-27T18:04:25.576Z,1.50
2023-03-27T18:06:28.594Z,1.20
2023-03-27T18:08:31.790Z,1.90
2023-03-27T18:10:36.112Z,1.60
2023-03-27T18:12:40.755Z,1.50
2023-03-27T18:14:46.944Z,1.43
2023-03-27T18:16:57.498Z,1.60
2023-03-27T18:19:03.017Z,1.50
2023-03-27T18:21:06.730Z,2.23
2023-03-27T18:23:09.643Z,1.60
2023-03-27T18:25:12.563Z,1.80
2023-03-27T18:27:17.460Z,1.83
2023-03-27T18:29:22.225Z,1.73
2023-03-27T18:31:25.467Z,1.73
2023-03-27T18:33:28.540Z,1.70
2023-03-27T18:35:31.976Z,1.80
2023-03-27T18:37:34.961Z,1.77
2023-03-27T18:39:37.993Z,1.80
2023-03-27T18:41:42.157Z,1.90
2023-03-27T18:43:48.082Z,1.80
2023-03-27T18:45:58.706Z,1.77
2023-03-27T18:48:04.437Z,2.13
2023-03-27T18:50:08.727Z,2.73
2023-03-27T18:52:14.768Z,2.37
2023-03-27T18:54:17.622Z,2.00
2023-03-27T18:56:20.570Z,2.07
2023-03-27T18:58:24.459Z,2.23
2023-03-27T19:00:28.713Z,2.10
2023-03-27T19:02:32.120Z,1.97
2023-03-27T19:04:35.247Z,2.70
2023-03-27T19:06:39.436Z,2.37
2023-03-27T19:08:45.276Z,2.40
2023-03-27T19:10:48.130Z,1.80
2023-03-27T19:12:51.317Z,2.27
2023-03-27T19:14:54.433Z,2.53
2023-03-27T19:16:59.327Z,2.73
2023-03-27T19:19:08.929Z,2.30
2023-03-27T19:21:11.967Z,2.83
2023-03-27T19:23:16.351Z,2.60
2023-03-27T19:25:19.537Z,3.77
2023-03-27T19:27:24.969Z,2.60
2023-03-27T19:29:29.558Z,2.40
2023-03-27T19:31:44.211Z,2.30
2023-03-27T19:34:02.100Z,2.23
2023-03-27T19:36:27.635Z,2.73
2023-03-27T19:41:27.168Z,2.70
2023-03-27T19:43:47.451Z,2.87
2023-03-27T19:46:04.287Z,2.70
2023-03-27T19:48:26.185Z,2.40
2023-03-27T19:50:32.732Z,2.70
2023-03-27T19:52:36.131Z,2.80
2023-03-27T19:54:41.393Z,3.03
2023-03-27T19:56:51.069Z,3.27
2023-03-27T19:58:56.875Z,3.10
2023-03-27T20:01:10.083Z,2.87
2023-03-27T20:03:27.188Z,3.30
2023-03-27T20:05:38.039Z,3.03
2023-03-27T20:07:41.389Z,3.20
2023-03-27T20:09:48.820Z,3.53
2023-03-27T20:12:01.102Z,5.30
2023-03-27T20:14:08.589Z,4.77
2023-03-27T20:16:23.351Z,3.47
2023-03-27T20:18:32.595Z,3.63
2023-03-27T20:20:42.774Z,3.43
2023-03-27T20:22:56.893Z,5.80
2023-03-27T20:25:01.231Z,4.65
2023-03-27T20:27:09.319Z,5.47
2023-03-27T20:29:15.383Z,5.67
2023-03-27T20:31:21.910Z,4.60
2023-03-27T20:33:26.664Z,5.00
2023-03-27T20:35:31.806Z,4.03
2023-03-27T20:37:40.075Z,3.73
2023-03-27T20:39:59.782Z,3.73
2023-03-27T20:42:08.932Z,3.37
2023-03-27T20:44:15.302Z,3.80
2023-03-27T20:46:26.244Z,3.10
2023-03-27T20:48:55.587Z,3.30
2023-03-27T20:52:16.875Z,3.10
2023-03-27T20:54:19.927Z,3.30
2023-03-27T20:56:39.912Z,3.60
2023-03-27T20:59:08.761Z,4.17
2023-03-27T21:01:12.776Z,4.40
2023-03-27T21:03:19.478Z,3.87
2023-03-27T21:05:32.664Z,4.03
2023-03-27T21:07:38.141Z,4.60
2023-03-27T21:09:53.261Z,4.30
2023-03-27T21:12:08.589Z,4.10
2023-03-27T21:14:13.128Z,4.53
2023-03-27T21:16:17.598Z,4.10
2023-03-27T21:18:32.805Z,3.80
2023-03-27T21:20:43.001Z,4.00
2023-03-27T21:23:01.809Z,4.43
2023-03-27T21:25:13.511Z,4.80
2023-03-27T21:27:21.433Z,4.30
2023-03-27T21:29:26.200Z,4.10
2023-03-27T21:31:29.458Z,3.90
2023-03-27T21:33:35.312Z,3.70
2023-03-27T21:35:57.507Z,3.73
2023-03-27T21:38:11.236Z,3.47
2023-03-27T21:40:17.518Z,3.33
2023-03-27T21:42:29.616Z,3.57
2023-03-27T21:44:41.517Z,3.40
2023-03-27T21:46:51.325Z,4.10
2023-03-27T21:49:26.310Z,3.40
2023-03-27T21:53:54.174Z,3.70
2023-03-27T21:55:59.122Z,3.50
2023-03-27T21:58:02.536Z,3.27
2023-03-27T22:00:06.521Z,3.67
2023-03-27T22:02:14.086Z,3.17
2023-03-27T22:04:20.487Z,3.30
2023-03-27T22:06:25.445Z,3.57
2023-03-27T22:08:28.593Z,3.30
2023-03-27T22:10:42.803Z,3.73
2023-03-27T22:12:47.509Z,3.33
2023-03-27T22:14:56.225Z,3.10
2023-03-27T22:17:01.057Z,3.50
2023-03-27T22:19:04.124Z,3.67
2023-03-27T22:21:18.712Z,3.53
2023-03-27T22:23:21.686Z,3.53
2023-03-27T22:25:24.784Z,3.47
2023-03-27T22:27:29.982Z,3.60
2023-03-27T22:29:36.841Z,3.17
2023-03-27T22:31:47.665Z,3.13
2023-03-27T22:33:51.987Z,3.10
2023-03-27T22:35:59.540Z,3.10
2023-03-27T22:38:03.119Z,3.33
2023-03-27T22:40:10.249Z,3.30
2023-03-27T22:42:15.374Z,3.60
2023-03-27T22:44:19.028Z,3.77
2023-03-27T22:46:24.793Z,3.33
2023-03-27T22:48:38.565Z,3.90
2023-03-27T22:50:42.134Z,3.40
2023-03-27T22:52:45.457Z,3.83
2023-03-27T22:54:52.225Z,3.70
2023-03-27T22:56:58.111Z,3.50
2023-03-27T22:59:06.235Z,3.70
2023-03-27T23:01:13.328Z,3.67
2023-03-27T23:03:34.123Z,4.03
2023-03-27T23:05:42.124Z,3.83
2023-03-27T23:07:45.565Z,4.07
2023-03-27T23:09:48.548Z,4.47
2023-03-27T23:11:52.688Z,4.50
2023-03-27T23:13:55.786Z,4.60
2023-03-27T23:16:02.136Z,4.20
2023-03-27T23:18:12.233Z,4.43
2023-03-27T23:20:29.952Z,4.73
2023-03-27T23:22:33.150Z,4.07
2023-03-27T23:24:37.733Z,4.57
2023-03-27T23:26:40.887Z,3.77
2023-03-27T23:28:44.269Z,4.30
2023-03-27T23:30:53.906Z,4.90
2023-03-27T23:32:56.913Z,4.53
2023-03-27T23:34:59.950Z,4.20
2023-03-27T23:37:06.126Z,4.10
2023-03-27T23:39:09.325Z,4.70
2023-03-27T23:41:16.676Z,5.13
2023-03-27T23:43:19.856Z,4.27
2023-03-27T23:45:28.840Z,4.50
2023-03-27T23:47:55.172Z,4.47
2023-03-27T23:50:00.480Z,4.07
2023-03-27T23:52:08.168Z,4.37
2023-03-27T23:54:12.460Z,3.70
2023-03-27T23:56:15.665Z,4.47
2023-03-27T23:58:21.635Z,4.37
